Time;durP1;ratioP1;P1;durP2;ratioP2;P2;SDS_P1;SDS_P2;PMS_P1;PMS_P2;Temp;Humidity;BMP_temperature;BMP_pressure;BME280_temperature;BME280_humidity;BME280_pressure;Samples;Min_cycle;Max_cycle;Signal;HPM_P1;HPM_P2
2020/12/18 00:00:23;;;;;;;10.83;7.83;;;;;;;;;;5052856;28;20794;-69
2020/12/18 00:02:49;;;;;;;10.23;7.90;;;;;;;;;;5053179;28;20488;-70
2020/12/18 00:05:15;;;;;;;9.80;6.67;;;;;;;;;;5051852;28;20960;-70
2020/12/18 00:07:42;;;;;;;9.40;7.67;;;;;;;;;;5053284;28;20472;-69
2020/12/18 00:10:08;;;;;;;11.03;8.17;;;;;;;;;;5052195;28;20430;-69
2020/12/18 00:12:34;;;;;;;11.93;6.80;;;;;;;;;;5056723;28;20398;-69
2020/12/18 00:15:00;;;;;;;9.30;7.33;;;;;;;;;;5055668;28;21016;-70
2020/12/18 00:17:26;;;;;;;10.20;7.43;;;;;;;;;;5057031;28;20398;-70
2020/12/18 00:19:52;;;;;;;10.67;7.33;;;;;;;;;;5055718;28;20499;-69
2020/12/18 00:22:18;;;;;;;11.13;6.63;;;;;;;;;;5056666;28;20436;-69
2020/12/18 00:24:44;;;;;;;12.13;7.60;;;;;;;;;;5055444;28;20817;-69
2020/12/18 00:27:10;;;;;;;12.10;8.30;;;;;;;;;;5056751;28;20398;-69
2020/12/18 00:29:36;;;;;;;10.77;7.93;;;;;;;;;;5055435;28;20933;-69
2020/12/18 00:32:05;;;;;;;10.10;7.40;;;;;;;;;;5056365;28;20468;-69
2020/12/18 00:34:31;;;;;;;10.33;7.23;;;;;;;;;;5055322;28;20460;-69
2020/12/18 00:36:57;;;;;;;10.80;8.70;;;;;;;;;;5056348;28;20544;-69
2020/12/18 00:39:23;;;;;;;9.97;7.17;;;;;;;;;;5054814;28;20504;-69
2020/12/18 00:41:53;;;;;;;11.73;7.07;;;;;;;;;;5056487;28;20423;-69
2020/12/18 00:44:19;;;;;;;10.20;7.60;;;;;;;;;;5054597;28;20942;-69
2020/12/18 00:46:45;;;;;;;12.00;8.30;;;;;;;;;;5052025;28;20444;-69
2020/12/18 00:49:11;;;;;;;10.27;8.07;;;;;;;;;;5054955;28;20438;-69
2020/12/18 00:51:37;;;;;;;11.07;7.33;;;;;;;;;;5056318;28;20406;-69
2020/12/18 00:54:03;;;;;;;9.30;7.57;;;;;;;;;;5054967;28;20457;-69
2020/12/18 00:56:29;;;;;;;9.67;8.33;;;;;;;;;;5056074;28;20458;-69
2020/12/18 00:58:55;;;;;;;12.80;8.30;;;;;;;;;;5054167;28;20426;-69
2020/12/18 01:01:21;;;;;;;14.53;7.47;;;;;;;;;;5055945;28;20420;-69
2020/12/18 01:03:47;;;;;;;9.90;7.80;;;;;;;;;;5054778;28;20950;-69
2020/12/18 01:06:13;;;;;;;12.03;7.13;;;;;;;;;;5056037;28;20410;-69
2020/12/18 01:08:39;;;;;;;8.63;6.50;;;;;;;;;;5055421;28;20804;-69
2020/12/18 01:11:06;;;;;;;11.93;7.27;;;;;;;;;;5055993;28;20401;-69
2020/12/18 01:13:32;;;;;;;11.57;8.80;;;;;;;;;;5054777;28;20398;-69
2020/12/18 01:15:58;;;;;;;11.90;8.50;;;;;;;;;;5054274;28;21051;-69
2020/12/18 01:18:25;;;;;;;11.47;7.63;;;;;;;;;;5055191;28;20440;-69
2020/12/18 01:20:51;;;;;;;11.17;6.97;;;;;;;;;;5054920;28;20538;-69
2020/12/18 01:23:17;;;;;;;9.50;6.20;;;;;;;;;;5052558;28;20918;-69
2020/12/18 01:25:44;;;;;;;10.50;6.90;;;;;;;;;;5054388;28;20440;-69
2020/12/18 01:28:10;;;;;;;11.23;7.20;;;;;;;;;;5055283;28;20451;-69
2020/12/18 01:30:36;;;;;;;10.17;7.53;;;;;;;;;;5054126;28;20446;-70
2020/12/18 01:33:02;;;;;;;10.90;7.77;;;;;;;;;;5055182;28;20390;-69
2020/12/18 01:35:28;;;;;;;11.27;8.17;;;;;;;;;;5054627;28;20457;-69
2020/12/18 01:37:54;;;;;;;12.43;7.83;;;;;;;;;;5055048;28;20548;-69
2020/12/18 01:40:20;;;;;;;10.27;7.40;;;;;;;;;;5053950;28;20422;-69
2020/12/18 01:42:46;;;;;;;10.20;7.57;;;;;;;;;;5055088;28;20394;-69
2020/12/18 01:45:12;;;;;;;9.57;7.40;;;;;;;;;;5053895;28;20461;-69
2020/12/18 01:47:38;;;;;;;13.53;7.60;;;;;;;;;;5049938;28;20933;-69
2020/12/18 01:50:05;;;;;;;9.80;6.77;;;;;;;;;;5042395;28;20435;-69
2020/12/18 01:52:33;;;;;;;9.93;8.40;;;;;;;;;;5043280;28;20436;-69
2020/12/18 01:55:02;;;;;;;9.80;7.87;;;;;;;;;;5054237;28;20454;-69
2020/12/18 01:57:28;;;;;;;12.53;7.53;;;;;;;;;;5054707;28;20441;-69
2020/12/18 01:59:54;;;;;;;9.90;7.37;;;;;;;;;;5016469;28;20434;-69
2020/12/18 02:02:21;;;;;;;7.80;6.67;;;;;;;;;;5034732;28;20399;-69
2020/12/18 02:04:47;;;;;;;9.23;6.40;;;;;;;;;;5042443;28;20453;-69
2020/12/18 02:07:14;;;;;;;10.17;7.77;;;;;;;;;;5054203;28;20783;-69
2020/12/18 02:09:40;;;;;;;11.00;6.57;;;;;;;;;;5053181;28;20437;-69
2020/12/18 02:12:07;;;;;;;8.67;6.40;;;;;;;;;;5054508;28;20967;-69
2020/12/18 02:14:33;;;;;;;10.67;7.10;;;;;;;;;;5053669;28;20430;-69
2020/12/18 02:16:59;;;;;;;11.73;6.90;;;;;;;;;;5054654;28;20569;-69
2020/12/18 02:19:28;;;;;;;9.83;7.00;;;;;;;;;;5053409;28;20394;-69
2020/12/18 02:21:54;;;;;;;12.90;9.57;;;;;;;;;;5054717;28;20399;-69
2020/12/18 02:24:22;;;;;;;19.63;10.63;;;;;;;;;;5053776;28;20768;-69
2020/12/18 02:26:48;;;;;;;13.23;7.97;;;;;;;;;;5054227;28;20394;-69
2020/12/18 02:29:14;;;;;;;15.17;8.73;;;;;;;;;;5054164;28;20734;-69
2020/12/18 02:31:39;;;;;;;11.33;8.97;;;;;;;;;;5053511;28;20524;-69
2020/12/18 02:34:05;;;;;;;11.70;8.53;;;;;;;;;;5036156;28;20819;-69
2020/12/18 02:36:31;;;;;;;12.00;8.80;;;;;;;;;;5052959;28;20457;-69
2020/12/18 02:39:00;;;;;;;14.87;9.30;;;;;;;;;;5053734;28;20453;-69
2020/12/18 02:41:26;;;;;;;15.47;9.00;;;;;;;;;;5049889;28;20429;-69
2020/12/18 02:43:52;;;;;;;14.27;9.33;;;;;;;;;;5054210;28;20414;-69
2020/12/18 02:46:18;;;;;;;12.77;8.30;;;;;;;;;;5053370;28;20436;-69
2020/12/18 02:48:45;;;;;;;15.40;9.17;;;;;;;;;;5052380;28;20401;-70
2020/12/18 02:51:11;;;;;;;13.00;9.50;;;;;;;;;;5051685;28;20472;-69
2020/12/18 02:53:37;;;;;;;12.40;8.37;;;;;;;;;;5053785;28;20442;-70
2020/12/18 02:56:03;;;;;;;10.20;7.90;;;;;;;;;;5053294;28;20496;-70
2020/12/18 02:58:29;;;;;;;11.00;6.80;;;;;;;;;;5053737;28;20417;-70
2020/12/18 03:00:55;;;;;;;9.90;7.07;;;;;;;;;;5052586;28;20474;-69
2020/12/18 03:03:21;;;;;;;10.40;7.70;;;;;;;;;;5052681;28;20425;-70
2020/12/18 03:05:47;;;;;;;9.80;6.90;;;;;;;;;;5052716;28;20532;-70
2020/12/18 03:08:13;;;;;;;11.50;7.90;;;;;;;;;;5053354;28;20748;-70
2020/12/18 03:10:39;;;;;;;14.17;8.53;;;;;;;;;;5035145;28;20426;-70
2020/12/18 03:13:05;;;;;;;11.67;7.80;;;;;;;;;;5052311;28;20441;-69
2020/12/18 03:15:31;;;;;;;11.20;8.10;;;;;;;;;;5052202;28;20556;-69
2020/12/18 03:17:57;;;;;;;11.70;8.07;;;;;;;;;;5053535;28;20401;-69
2020/12/18 03:20:23;;;;;;;13.37;7.77;;;;;;;;;;5052297;28;20471;-69
2020/12/18 03:22:49;;;;;;;12.67;7.63;;;;;;;;;;5053275;28;20390;-69
2020/12/18 03:25:15;;;;;;;12.10;7.80;;;;;;;;;;5052898;28;20500;-69
2020/12/18 03:27:41;;;;;;;12.70;8.27;;;;;;;;;;5051836;28;20895;-69
2020/12/18 03:30:07;;;;;;;9.67;7.40;;;;;;;;;;5052977;28;20842;-69
2020/12/18 03:32:33;;;;;;;11.10;7.70;;;;;;;;;;5053070;28;20422;-69
2020/12/18 03:34:59;;;;;;;10.27;7.93;;;;;;;;;;5051928;28;20418;-69
2020/12/18 03:37:25;;;;;;;8.70;7.00;;;;;;;;;;5052993;28;20398;-69
2020/12/18 03:39:51;;;;;;;9.60;7.07;;;;;;;;;;5053028;28;20398;-69
2020/12/18 03:42:17;;;;;;;11.53;7.37;;;;;;;;;;5052552;28;20417;-69
2020/12/18 03:44:43;;;;;;;14.77;8.87;;;;;;;;;;5052321;28;20799;-69
2020/12/18 03:47:09;;;;;;;21.50;10.40;;;;;;;;;;5050579;28;20425;-69
2020/12/18 03:49:35;;;;;;;17.90;9.10;;;;;;;;;;5052954;28;20397;-69
2020/12/18 03:52:01;;;;;;;13.57;9.37;;;;;;;;;;5049596;28;20438;-69
2020/12/18 03:54:26;;;;;;;15.43;7.70;;;;;;;;;;5052812;28;20463;-69
2020/12/18 03:56:52;;;;;;;11.47;7.30;;;;;;;;;;5052043;28;20540;-69
2020/12/18 03:59:18;;;;;;;14.43;8.20;;;;;;;;;;5052792;28;20406;-69
2020/12/18 04:01:44;;;;;;;10.97;7.50;;;;;;;;;;5051677;28;20434;-69
2020/12/18 04:04:10;;;;;;;9.97;6.20;;;;;;;;;;5052835;28;20491;-69
2020/12/18 04:06:36;;;;;;;11.20;7.80;;;;;;;;;;5051720;28;20430;-69
2020/12/18 04:09:02;;;;;;;9.30;6.47;;;;;;;;;;5053128;28;20410;-69
2020/12/18 04:11:28;;;;;;;11.00;7.43;;;;;;;;;;5052552;28;20508;-69
2020/12/18 04:13:54;;;;;;;10.40;7.67;;;;;;;;;;5052656;28;20426;-69
2020/12/18 04:16:21;;;;;;;10.63;7.40;;;;;;;;;;5051603;28;20514;-69
2020/12/18 04:18:48;;;;;;;10.40;7.50;;;;;;;;;;5052694;28;20409;-69
2020/12/18 04:21:14;;;;;;;10.33;6.83;;;;;;;;;;5051648;28;20434;-69
2020/12/18 04:23:40;;;;;;;11.23;7.33;;;;;;;;;;5052549;28;20422;-69
2020/12/18 04:26:06;;;;;;;8.00;6.40;;;;;;;;;;5051117;28;20918;-69
2020/12/18 04:28:32;;;;;;;8.57;6.97;;;;;;;;;;5052548;28;20414;-69
2020/12/18 04:30:59;;;;;;;9.43;6.97;;;;;;;;;;5050720;28;20975;-70
2020/12/18 04:33:25;;;;;;;10.43;7.07;;;;;;;;;;5052783;28;20421;-70
2020/12/18 04:35:51;;;;;;;9.53;6.27;;;;;;;;;;5051626;28;20481;-70
2020/12/18 04:38:17;;;;;;;9.17;6.70;;;;;;;;;;5052879;28;20436;-70
2020/12/18 04:40:43;;;;;;;9.63;7.33;;;;;;;;;;5052002;28;20938;-70
2020/12/18 04:43:09;;;;;;;12.70;7.30;;;;;;;;;;5052539;28;20405;-70
2020/12/18 04:45:37;;;;;;;6.73;6.03;;;;;;;;;;5051452;28;20532;-70
2020/12/18 04:48:05;;;;;;;16.07;7.20;;;;;;;;;;5052817;28;20877;-70
2020/12/18 04:50:31;;;;;;;11.67;6.27;;;;;;;;;;5050998;28;20487;-70
2020/12/18 04:52:58;;;;;;;8.67;6.57;;;;;;;;;;5046292;28;20441;-70
2020/12/18 04:55:27;;;;;;;11.00;6.90;;;;;;;;;;5044294;28;20457;-70
2020/12/18 04:57:53;;;;;;;7.97;6.20;;;;;;;;;;5053596;28;20429;-70
2020/12/18 05:00:20;;;;;;;9.53;6.70;;;;;;;;;;5055674;28;20925;-70
2020/12/18 05:02:47;;;;;;;9.40;6.47;;;;;;;;;;5056152;28;20894;-70
2020/12/18 05:05:13;;;;;;;10.93;6.87;;;;;;;;;;5055041;28;20450;-70
2020/12/18 05:07:39;;;;;;;10.27;7.53;;;;;;;;;;5057471;28;20425;-71
2020/12/18 05:10:09;;;;;;;12.33;7.43;;;;;;;;;;5056131;28;20930;-70
2020/12/18 05:12:35;;;;;;;13.13;8.80;;;;;;;;;;5056403;28;20406;-71
2020/12/18 05:15:01;;;;;;;10.73;8.40;;;;;;;;;;5055044;28;20488;-71
2020/12/18 05:17:28;;;;;;;8.60;6.87;;;;;;;;;;5056215;28;20489;-70
2020/12/18 05:19:54;;;;;;;9.30;6.90;;;;;;;;;;5054252;28;20786;-70
2020/12/18 05:22:23;;;;;;;7.53;6.60;;;;;;;;;;5035734;28;20399;-70
2020/12/18 05:24:50;;;;;;;11.23;7.00;;;;;;;;;;5035846;28;20446;-70
2020/12/18 05:27:16;;;;;;;9.70;6.63;;;;;;;;;;5054367;28;20429;-70
2020/12/18 05:29:43;;;;;;;11.67;7.40;;;;;;;;;;5055252;28;20508;-70
2020/12/18 05:32:11;;;;;;;9.30;7.43;;;;;;;;;;5053451;28;20474;-70
2020/12/18 05:34:39;;;;;;;10.53;7.17;;;;;;;;;;5054093;28;20802;-70
2020/12/18 05:37:05;;;;;;;10.00;6.47;;;;;;;;;;5054431;28;20458;-70
2020/12/18 05:39:34;;;;;;;10.60;7.20;;;;;;;;;;5055413;28;20398;-71
2020/12/18 05:42:03;;;;;;;16.93;7.77;;;;;;;;;;5054596;28;20828;-70
2020/12/18 05:44:31;;;;;;;12.87;7.83;;;;;;;;;;5055306;28;20559;-70
2020/12/18 05:47:06;;;;;;;12.53;7.53;;;;;;;;;;5055290;28;20533;-71
2020/12/18 05:49:33;;;;;;;14.73;8.23;;;;;;;;;;5056271;28;20404;-70
2020/12/18 05:52:00;;;;;;;12.33;7.17;;;;;;;;;;5054166;28;20421;-70
2020/12/18 05:54:52;;;;;;;12.13;8.40;;;;;;;;;;5054261;28;21249;-70
2020/12/18 05:57:18;;;;;;;14.40;9.30;;;;;;;;;;5050141;28;20441;-70
2020/12/18 05:59:45;;;;;;;12.80;7.70;;;;;;;;;;5055678;28;20920;-70
2020/12/18 06:02:12;;;;;;;13.27;7.63;;;;;;;;;;5052935;28;20521;-70
2020/12/18 06:04:38;;;;;;;12.57;8.20;;;;;;;;;;5054715;28;20418;-70
2020/12/18 06:07:05;;;;;;;15.03;8.13;;;;;;;;;;5054213;28;20775;-70
2020/12/18 06:09:31;;;;;;;12.10;7.70;;;;;;;;;;5054711;28;20410;-71
2020/12/18 06:11:58;;;;;;;10.87;7.60;;;;;;;;;;5052944;28;20932;-71
2020/12/18 06:14:24;;;;;;;10.93;7.97;;;;;;;;;;5054819;28;20786;-70
2020/12/18 06:16:54;;;;;;;13.90;8.57;;;;;;;;;;5053676;28;20450;-70
2020/12/18 06:19:21;;;;;;;11.10;7.30;;;;;;;;;;5053286;28;20489;-70
2020/12/18 06:21:50;;;;;;;10.23;7.20;;;;;;;;;;5053521;28;20477;-70
2020/12/18 06:24:16;;;;;;;11.83;7.63;;;;;;;;;;5054390;28;20422;-70
2020/12/18 06:26:43;;;;;;;9.97;7.80;;;;;;;;;;5053496;28;20436;-70
2020/12/18 06:29:09;;;;;;;9.33;6.70;;;;;;;;;;5054136;28;20452;-70
2020/12/18 06:31:35;;;;;;;11.10;6.63;;;;;;;;;;5053149;28;20820;-70
2020/12/18 06:34:03;;;;;;;9.27;6.67;;;;;;;;;;5053197;28;20449;-70
2020/12/18 06:36:44;;;;;;;7.27;6.13;;;;;;;;;;5053224;28;20802;-70
2020/12/18 06:39:42;;;;;;;7.20;6.40;;;;;;;;;;5054024;28;20852;-70
2020/12/18 06:42:08;;;;;;;7.87;5.97;;;;;;;;;;5009534;28;20443;-70
2020/12/18 06:44:34;;;;;;;9.90;6.63;;;;;;;;;;5053888;28;20479;-70
2020/12/18 06:47:07;;;;;;;7.80;6.10;;;;;;;;;;5052849;28;20430;-70
2020/12/18 06:49:51;;;;;;;15.00;6.53;;;;;;;;;;5053802;28;20489;-70
2020/12/18 06:52:36;;;;;;;8.00;6.40;;;;;;;;;;5053373;28;20461;-70
2020/12/18 06:55:02;;;;;;;11.13;6.87;;;;;;;;;;5053581;28;20919;-70
2020/12/18 06:57:28;;;;;;;8.77;6.33;;;;;;;;;;5048129;28;20436;-70
2020/12/18 07:00:14;;;;;;;13.00;7.23;;;;;;;;;;5053877;28;20398;-70
2020/12/18 07:02:40;;;;;;;7.93;6.07;;;;;;;;;;5053328;28;20422;-70
2020/12/18 07:05:06;;;;;;;8.47;6.83;;;;;;;;;;5053687;28;20479;-70
2020/12/18 07:07:41;;;;;;;10.23;7.13;;;;;;;;;;5052641;28;20790;-70
2020/12/18 07:10:08;;;;;;;9.93;6.83;;;;;;;;;;5053350;28;20432;-70
2020/12/18 07:12:36;;;;;;;8.23;6.73;;;;;;;;;;5053030;28;20426;-70
2020/12/18 07:15:05;;;;;;;8.97;6.00;;;;;;;;;;5053225;28;20422;-70
2020/12/18 07:17:31;;;;;;;10.17;7.47;;;;;;;;;;5052235;28;20479;-70
2020/12/18 07:19:58;;;;;;;11.47;7.13;;;;;;;;;;5052841;28;20909;-70
2020/12/18 07:22:24;;;;;;;6.87;5.30;;;;;;;;;;5052409;28;20426;-70
2020/12/18 07:24:50;;;;;;;9.00;6.93;;;;;;;;;;5051286;28;20809;-70
2020/12/18 07:27:16;;;;;;;10.13;6.20;;;;;;;;;;5052219;28;20440;-70
2020/12/18 07:29:42;;;;;;;9.20;6.57;;;;;;;;;;5053884;28;20406;-70
2020/12/18 07:32:09;;;;;;;8.50;6.30;;;;;;;;;;5052255;28;20798;-70
2020/12/18 07:34:35;;;;;;;6.60;5.87;;;;;;;;;;5053439;28;20486;-70
2020/12/18 07:37:13;;;;;;;8.63;6.70;;;;;;;;;;5052397;28;20981;-70
2020/12/18 07:39:39;;;;;;;9.33;5.53;;;;;;;;;;5052018;28;20430;-70
2020/12/18 07:42:05;;;;;;;12.80;8.97;;;;;;;;;;5052187;28;20946;-70
2020/12/18 07:44:31;;;;;;;10.80;8.30;;;;;;;;;;5053351;28;20421;-70
2020/12/18 07:46:57;;;;;;;16.17;9.70;;;;;;;;;;5052615;28;20436;-70
2020/12/18 07:49:25;;;;;;;14.13;9.90;;;;;;;;;;5053074;28;20436;-70
2020/12/18 07:51:51;;;;;;;14.73;7.90;;;;;;;;;;5051947;28;20429;-70
2020/12/18 07:54:20;;;;;;;13.80;7.97;;;;;;;;;;5053229;28;20433;-70
2020/12/18 07:56:47;;;;;;;14.70;9.80;;;;;;;;;;5051903;28;20457;-70
2020/12/18 07:59:12;;;;;;;20.07;9.37;;;;;;;;;;5052143;28;20455;-70
2020/12/18 08:01:38;;;;;;;19.40;10.33;;;;;;;;;;5051287;28;20434;-70
2020/12/18 08:04:14;;;;;;;22.20;8.93;;;;;;;;;;5052957;28;20505;-70
2020/12/18 08:06:41;;;;;;;21.40;9.93;;;;;;;;;;5050992;28;20428;-70
2020/12/18 08:09:08;;;;;;;27.07;10.20;;;;;;;;;;5053148;28;20409;-70
2020/12/18 08:11:45;;;;;;;13.40;7.70;;;;;;;;;;5051823;28;20426;-70
2020/12/18 08:14:12;;;;;;;14.83;8.97;;;;;;;;;;5051718;28;20949;-70
2020/12/18 08:16:38;;;;;;;15.87;8.67;;;;;;;;;;5051581;28;20468;-70
2020/12/18 08:19:06;;;;;;;15.00;9.13;;;;;;;;;;5052816;28;20879;-70
2020/12/18 08:21:33;;;;;;;14.80;8.70;;;;;;;;;;5050801;28;20422;-70
2020/12/18 08:23:59;;;;;;;10.23;7.87;;;;;;;;;;5052658;28;20520;-70
2020/12/18 08:26:27;;;;;;;11.03;8.23;;;;;;;;;;5052594;28;20887;-70
2020/12/18 08:28:53;;;;;;;14.63;9.87;;;;;;;;;;5052706;28;20417;-70
2020/12/18 08:31:20;;;;;;;12.10;8.50;;;;;;;;;;5052685;28;20426;-70
2020/12/18 08:33:55;;;;;;;17.23;8.33;;;;;;;;;;5038166;28;20946;-70
2020/12/18 08:36:23;;;;;;;11.70;8.07;;;;;;;;;;5055644;28;20759;-70
2020/12/18 08:39:08;;;;;;;10.47;7.80;;;;;;;;;;5051276;28;20453;-70
2020/12/18 08:41:46;;;;;;;11.23;8.03;;;;;;;;;;5036892;28;20445;-70
2020/12/18 08:44:14;;;;;;;10.73;8.40;;;;;;;;;;5052748;28;20810;-70
2020/12/18 08:46:40;;;;;;;12.40;7.50;;;;;;;;;;5052056;28;20406;-70
2020/12/18 08:49:13;;;;;;;10.37;8.10;;;;;;;;;;5053011;28;20429;-70
2020/12/18 08:51:39;;;;;;;10.47;8.20;;;;;;;;;;5052511;28;20409;-70
2020/12/18 08:54:24;;;;;;;12.30;9.30;;;;;;;;;;5054869;28;20433;-70
2020/12/18 08:57:08;;;;;;;15.27;9.07;;;;;;;;;;5053343;28;20518;-70
2020/12/18 08:59:34;;;;;;;14.33;8.90;;;;;;;;;;5048426;28;20475;-70
2020/12/18 09:02:00;;;;;;;13.80;9.40;;;;;;;;;;5047766;28;20425;-70
2020/12/18 09:04:26;;;;;;;12.83;9.80;;;;;;;;;;5054124;28;20487;-70
2020/12/18 09:06:52;;;;;;;12.83;7.37;;;;;;;;;;5054692;28;22941;-70
2020/12/18 09:09:18;;;;;;;18.10;8.60;;;;;;;;;;5054925;28;20460;-70
2020/12/18 09:11:46;;;;;;;11.70;8.73;;;;;;;;;;5052214;28;20841;-70
2020/12/18 09:14:25;;;;;;;10.13;7.90;;;;;;;;;;5055164;28;20434;-70
2020/12/18 09:16:55;;;;;;;13.27;7.77;;;;;;;;;;5055085;28;20468;-70
2020/12/18 09:19:21;;;;;;;11.23;7.30;;;;;;;;;;5055811;28;20498;-71
2020/12/18 09:21:47;;;;;;;12.53;7.90;;;;;;;;;;5053389;28;20794;-70
2020/12/18 09:24:19;;;;;;;11.20;7.60;;;;;;;;;;5054304;28;20430;-70
2020/12/18 09:26:46;;;;;;;13.40;8.70;;;;;;;;;;5054045;28;20508;-70
2020/12/18 09:29:18;;;;;;;13.23;7.70;;;;;;;;;;5055084;28;20493;-70
2020/12/18 09:31:46;;;;;;;10.80;7.20;;;;;;;;;;5054301;28;20450;-70
2020/12/18 09:34:15;;;;;;;9.40;7.30;;;;;;;;;;5054563;28;20437;-70
2020/12/18 09:36:41;;;;;;;11.53;7.90;;;;;;;;;;5054784;28;20974;-70
2020/12/18 09:39:07;;;;;;;8.93;6.57;;;;;;;;;;5055059;28;20425;-70
2020/12/18 09:41:33;;;;;;;8.93;7.50;;;;;;;;;;5055298;28;20456;-70
2020/12/18 09:43:59;;;;;;;9.33;7.13;;;;;;;;;;5053085;28;20456;-70
2020/12/18 09:46:26;;;;;;;10.87;7.17;;;;;;;;;;5054629;28;20425;-70
2020/12/18 09:48:52;;;;;;;13.23;7.30;;;;;;;;;;5049965;28;20453;-70
2020/12/18 09:51:18;;;;;;;12.87;7.13;;;;;;;;;;5053926;28;20502;-70
2020/12/18 09:53:44;;;;;;;9.60;7.30;;;;;;;;;;5053224;28;20438;-70
2020/12/18 09:56:14;;;;;;;10.87;7.77;;;;;;;;;;5054434;28;20450;-70
2020/12/18 09:58:40;;;;;;;12.50;7.50;;;;;;;;;;5055145;28;20421;-70
2020/12/18 10:01:06;;;;;;;14.90;7.70;;;;;;;;;;5052696;28;20427;-70
2020/12/18 10:03:35;;;;;;;10.00;6.03;;;;;;;;;;5053117;28;20840;-70
2020/12/18 10:06:01;;;;;;;8.03;6.17;;;;;;;;;;5054221;28;20459;-70
2020/12/18 10:08:27;;;;;;;10.07;6.50;;;;;;;;;;5052901;28;20438;-70
2020/12/18 10:10:53;;;;;;;6.00;5.03;;;;;;;;;;5052857;28;20414;-70
2020/12/18 10:13:19;;;;;;;7.70;5.20;;;;;;;;;;5048315;28;21199;-70
2020/12/18 10:15:45;;;;;;;9.77;6.17;;;;;;;;;;5035925;28;20460;-70
2020/12/18 10:18:11;;;;;;;8.20;6.70;;;;;;;;;;5052538;28;20417;-70
2020/12/18 10:20:37;;;;;;;8.30;7.20;;;;;;;;;;5054447;28;20402;-70
2020/12/18 10:23:03;;;;;;;12.10;6.90;;;;;;;;;;5054458;28;20433;-70
2020/12/18 10:25:29;;;;;;;6.40;5.40;;;;;;;;;;5052908;28;20464;-70
2020/12/18 10:27:55;;;;;;;9.50;6.57;;;;;;;;;;5052465;28;20441;-70
2020/12/18 10:30:21;;;;;;;7.57;6.03;;;;;;;;;;5053053;28;20417;-70
2020/12/18 10:32:47;;;;;;;9.43;6.20;;;;;;;;;;5050555;28;20434;-70
2020/12/18 10:35:14;;;;;;;9.40;7.50;;;;;;;;;;5053631;28;20549;-70
2020/12/18 10:37:44;;;;;;;14.17;6.00;;;;;;;;;;5052524;28;20928;-70
2020/12/18 10:40:12;;;;;;;7.50;5.43;;;;;;;;;;5053219;28;20421;-69
2020/12/18 10:42:38;;;;;;;10.13;6.17;;;;;;;;;;5052484;28;20501;-69
2020/12/18 10:45:04;;;;;;;9.17;5.00;;;;;;;;;;5053524;28;20517;-69
2020/12/18 10:47:30;;;;;;;5.83;5.00;;;;;;;;;;5062017;28;20804;-69
2020/12/18 10:49:56;;;;;;;7.40;5.33;;;;;;;;;;5053455;28;20488;-69
2020/12/18 10:52:22;;;;;;;11.60;4.90;;;;;;;;;;5051920;28;20414;-70
2020/12/18 10:54:48;;;;;;;5.20;4.20;;;;;;;;;;5051597;28;20465;-69
2020/12/18 10:57:14;;;;;;;5.20;4.47;;;;;;;;;;5051614;28;20938;-70
2020/12/18 10:59:40;;;;;;;6.90;4.57;;;;;;;;;;5053590;28;20405;-70
2020/12/18 11:02:06;;;;;;;7.70;5.17;;;;;;;;;;5053271;28;20434;-70
2020/12/18 11:04:32;;;;;;;7.47;5.03;;;;;;;;;;5048052;28;20449;-70
2020/12/18 11:06:58;;;;;;;4.77;3.97;;;;;;;;;;5052044;28;20481;-70
2020/12/18 11:09:24;;;;;;;7.33;4.73;;;;;;;;;;5053188;28;20430;-70
2020/12/18 11:11:52;;;;;;;8.00;4.80;;;;;;;;;;5053628;28;20794;-70
2020/12/18 11:14:18;;;;;;;6.83;5.20;;;;;;;;;;5052319;28;20806;-71
2020/12/18 11:16:44;;;;;;;10.67;5.00;;;;;;;;;;5035538;28;20530;-70
2020/12/18 11:19:10;;;;;;;7.37;6.60;;;;;;;;;;5052954;28;20422;-70
2020/12/18 11:21:38;;;;;;;4.90;4.20;;;;;;;;;;5052620;28;20409;-70
2020/12/18 11:24:04;;;;;;;9.40;4.13;;;;;;;;;;5051382;28;20469;-70
2020/12/18 11:26:30;;;;;;;8.20;4.73;;;;;;;;;;5053154;28;20422;-70
2020/12/18 11:28:56;;;;;;;6.10;4.23;;;;;;;;;;5051464;28;20513;-70
2020/12/18 11:31:22;;;;;;;4.90;4.40;;;;;;;;;;5052599;28;20429;-70
2020/12/18 11:33:48;;;;;;;8.40;5.13;;;;;;;;;;5051973;28;20457;-70
2020/12/18 11:36:14;;;;;;;6.33;4.03;;;;;;;;;;5052521;28;21004;-71
2020/12/18 11:38:40;;;;;;;12.03;4.77;;;;;;;;;;5051782;28;20436;-71
2020/12/18 11:41:06;;;;;;;8.00;4.27;;;;;;;;;;5051008;28;20795;-70
2020/12/18 11:43:32;;;;;;;8.30;4.13;;;;;;;;;;5051887;28;20888;-70
2020/12/18 11:45:59;;;;;;;8.20;4.57;;;;;;;;;;5052547;28;20422;-70
2020/12/18 11:48:26;;;;;;;6.43;4.40;;;;;;;;;;5052075;28;20426;-70
2020/12/18 11:50:52;;;;;;;7.70;5.80;;;;;;;;;;5053723;28;20552;-71
2020/12/18 11:53:18;;;;;;;7.00;4.70;;;;;;;;;;5051841;28;20462;-70
2020/12/18 11:55:44;;;;;;;8.13;5.10;;;;;;;;;;5052307;28;20571;-71
2020/12/18 11:58:10;;;;;;;10.23;5.70;;;;;;;;;;5052032;28;20422;-70
2020/12/18 12:00:36;;;;;;;8.60;5.23;;;;;;;;;;5051955;28;20452;-70
2020/12/18 12:03:02;;;;;;;7.30;4.97;;;;;;;;;;5051690;28;20422;-70
2020/12/18 12:05:28;;;;;;;7.47;4.27;;;;;;;;;;5048162;28;20825;-70
2020/12/18 12:07:54;;;;;;;5.43;4.33;;;;;;;;;;5054929;28;20456;-71
2020/12/18 12:10:20;;;;;;;6.17;4.80;;;;;;;;;;5058193;28;20779;-71
2020/12/18 12:12:46;;;;;;;5.33;4.57;;;;;;;;;;5057129;28;20402;-70
2020/12/18 12:15:13;;;;;;;7.60;5.50;;;;;;;;;;5056048;28;20522;-70
2020/12/18 12:17:39;;;;;;;7.67;4.40;;;;;;;;;;5055666;28;20451;-70
2020/12/18 12:20:05;;;;;;;9.83;4.70;;;;;;;;;;5057048;28;20406;-70
2020/12/18 12:22:31;;;;;;;10.03;4.87;;;;;;;;;;5056187;28;20409;-70
2020/12/18 12:24:58;;;;;;;6.37;4.20;;;;;;;;;;5055145;28;20437;-70
2020/12/18 12:27:24;;;;;;;5.90;4.73;;;;;;;;;;5056275;28;21054;-70
2020/12/18 12:29:51;;;;;;;6.00;3.67;;;;;;;;;;5054539;28;20417;-70
2020/12/18 12:32:17;;;;;;;8.93;3.90;;;;;;;;;;5055827;28;20437;-70
2020/12/18 12:34:43;;;;;;;5.27;4.10;;;;;;;;;;5037433;28;20459;-70
2020/12/18 12:37:09;;;;;;;7.03;3.90;;;;;;;;;;5055935;28;20446;-70
2020/12/18 12:39:35;;;;;;;4.40;3.37;;;;;;;;;;5054946;28;20430;-70
2020/12/18 12:42:05;;;;;;;8.23;4.20;;;;;;;;;;5055355;28;20902;-70
2020/12/18 12:44:31;;;;;;;5.47;4.20;;;;;;;;;;5055257;28;20969;-70
2020/12/18 12:46:57;;;;;;;8.30;5.67;;;;;;;;;;5054517;28;20425;-70
2020/12/18 12:49:24;;;;;;;8.40;6.07;;;;;;;;;;5054869;28;20438;-70
2020/12/18 12:51:56;;;;;;;7.83;5.60;;;;;;;;;;5055661;28;20475;-70
2020/12/18 12:54:23;;;;;;;12.00;6.30;;;;;;;;;;5052827;28;20856;-70
2020/12/18 12:56:49;;;;;;;8.17;5.67;;;;;;;;;;5055691;28;20449;-70
2020/12/18 12:59:15;;;;;;;7.57;5.63;;;;;;;;;;5054297;28;20926;-70
2020/12/18 13:01:41;;;;;;;9.23;5.50;;;;;;;;;;5055627;28;20449;-70
2020/12/18 13:04:07;;;;;;;9.50;5.13;;;;;;;;;;5054363;28;20445;-70
2020/12/18 13:06:34;;;;;;;11.10;4.93;;;;;;;;;;5053467;28;20417;-70
2020/12/18 13:09:00;;;;;;;5.83;4.50;;;;;;;;;;5052151;28;20434;-70
2020/12/18 13:11:26;;;;;;;7.27;5.00;;;;;;;;;;5055256;28;20422;-70
2020/12/18 13:13:52;;;;;;;5.60;4.40;;;;;;;;;;5054262;28;20818;-70
2020/12/18 13:16:27;;;;;;;7.33;5.07;;;;;;;;;;5055306;28;20538;-70
2020/12/18 13:18:53;;;;;;;4.20;3.80;;;;;;;;;;5034041;28;20421;-70
2020/12/18 13:21:19;;;;;;;6.83;4.30;;;;;;;;;;5053500;28;20799;-71
2020/12/18 13:23:45;;;;;;;5.30;4.17;;;;;;;;;;5053438;28;20806;-71
2020/12/18 13:26:11;;;;;;;5.80;4.47;;;;;;;;;;5052808;28;20425;-71
2020/12/18 13:28:37;;;;;;;5.57;4.80;;;;;;;;;;5054103;28;20430;-71
2020/12/18 13:31:03;;;;;;;5.37;4.13;;;;;;;;;;5054702;28;20418;-71
2020/12/18 13:33:29;;;;;;;6.00;5.40;;;;;;;;;;5051415;28;20511;-70
2020/12/18 13:35:55;;;;;;;19.23;6.00;;;;;;;;;;5052068;28;20457;-72
2020/12/18 13:38:21;;;;;;;13.37;5.60;;;;;;;;;;5052687;28;20524;-71
2020/12/18 13:40:47;;;;;;;7.43;4.50;;;;;;;;;;5054733;28;20489;-69
2020/12/18 13:43:13;;;;;;;6.00;5.10;;;;;;;;;;5051354;28;20423;-74
2020/12/18 13:45:39;;;;;;;7.30;4.97;;;;;;;;;;5040555;28;20984;-73
2020/12/18 13:48:05;;;;;;;5.87;4.43;;;;;;;;;;5054125;28;20441;-72
2020/12/18 13:50:31;;;;;;;7.97;4.30;;;;;;;;;;5054107;28;20462;-71
2020/12/18 13:52:57;;;;;;;6.03;4.80;;;;;;;;;;5054119;28;20429;-72
2020/12/18 13:55:23;;;;;;;9.40;5.03;;;;;;;;;;5056130;28;20618;-73
2020/12/18 13:57:49;;;;;;;7.25;4.80;;;;;;;;;;5054470;28;20439;-73
2020/12/18 14:00:15;;;;;;;7.03;5.70;;;;;;;;;;5052949;28;20187;-73
2020/12/18 14:02:41;;;;;;;6.40;5.03;;;;;;;;;;5055118;28;20891;-74
2020/12/18 14:05:07;;;;;;;9.20;5.23;;;;;;;;;;5051303;28;20446;-72
2020/12/18 14:07:34;;;;;;;8.60;4.93;;;;;;;;;;5049593;28;20412;-75
2020/12/18 14:10:00;;;;;;;6.37;4.60;;;;;;;;;;5050317;28;20451;-72
2020/12/18 14:12:26;;;;;;;5.43;4.90;;;;;;;;;;5053827;28;20479;-75
2020/12/18 14:14:53;;;;;;;8.97;5.63;;;;;;;;;;5051586;28;20825;-73
2020/12/18 14:17:19;;;;;;;6.87;5.30;;;;;;;;;;5053865;28;20961;-74
2020/12/18 14:19:45;;;;;;;6.63;4.70;;;;;;;;;;5056143;28;20432;-78
2020/12/18 14:22:13;;;;;;;7.93;5.93;;;;;;;;;;5055738;28;20413;-74
2020/12/18 14:24:39;;;;;;;6.67;5.03;;;;;;;;;;5041945;28;20799;-73
2020/12/18 14:27:05;;;;;;;6.30;5.47;;;;;;;;;;5050255;28;20800;-74
2020/12/18 14:29:31;;;;;;;8.50;5.63;;;;;;;;;;5051895;28;20430;-72
2020/12/18 14:31:57;;;;;;;7.00;4.80;;;;;;;;;;5052425;28;20773;-73
2020/12/18 14:34:23;;;;;;;7.33;5.77;;;;;;;;;;5052125;28;20206;-72